• Join FlightAware (Why Join?)
  • Login
  • US Flag 
Rudolph Flight #1: Arrived! 
08:17PM EST


 

Airport Tracker/Info


-or-


 

Live Flight TrackerFlight Track Log ✈ LYM3418 ✈ 03-Mar-2012 ✈ KDEN - KGUC

Flight Track Log - Related Links

Times and Time Zones

All times are in EST time to prevent confusion due to time zone crossing. See the LYM3418 flight status page for this flight to view local times or setup timezone preferences in your user account.

Time Position Orientation Groundspeed Altitude Reporting Facility
EST Latitude Longitude Course Direction KTS MPH feet Rate Location/Type
09:16AM 39.8500 -104.7167 252° West 168 193 7,500  Level Denver TRACON
09:17AM 39.8333 -104.7833 243° Southwest 208 239 9,100 1,620 Climbing Denver TRACON
09:18AM 39.8000 -104.8667 226° Southwest 222 255 11,100 1,680 Climbing Denver TRACON
09:19AM 39.7500 -104.9333 229° Southwest 238 274 13,000 1,500 Climbing Denver TRACON
09:20AM 39.7167 -104.9833 245° Southwest 242 278 14,000 1,260 Climbing Denver TRACON
09:21AM 39.6953 -105.0431 248° West 238 274 14,900 960 Climbing Denver Center
09:22AM 39.6733 -105.1136 248° West 245 282 15,600 900 Climbing Denver Center
09:23AM 39.6472 -105.1978 243° Southwest 245 282 16,800 960 Climbing Denver Center
09:24AM 39.6186 -105.2711 250° West 245 282 17,600 1,020 Climbing Denver Center
09:25AM 39.5967 -105.3494 252° West 239 275 18,900 960 Climbing Denver Center
09:26AM 39.5764 -105.4306 255° West 234 269 19,600 540 Climbing Denver Center
09:27AM 39.5583 -105.5172 257° West 249 287 20,000 180 Climbing Denver Center
09:28AM 39.5425 -105.6089 251° West 260 299 20,000 -180 Level Denver Center
09:29AM 39.5161 -105.7089 247° West 267 307 19,700  Descending Denver Center
09:30AM 39.4894 -105.7897 251° West 262 302 20,000  Climbing Denver Center
09:31AM 39.4669 -105.8761 249° West 262 302 19,800  Descending Denver Center
09:32AM 39.4425 -105.9597 247° West 257 296 20,100  Climbing Denver Center
09:33AM 39.4156 -106.0431 246° West 255 293 19,900 -120 Descending Denver Center
09:34AM 39.3867 -106.1267 240° Southwest 255 293 19,900  Level Denver Center
09:35AM 39.3514 -106.2047 192° South 255 293 20,000 60 Climbing Denver Center
09:36AM 39.2597 -106.2292 191° South 278 320 20,100  Climbing Denver Center
09:37AM 39.1639 -106.2536 197° South 313 360 20,000 -60 Descending Denver Center
09:38AM 39.0764 -106.2886 207° Southwest 332 382 20,000 -240 Level Denver Center
09:39AM 38.9972 -106.3397 220° Southwest 332 382 19,600 -600 Descending Denver Center
09:40AM 38.9286 -106.4144 224° Southwest 327 376 18,800 -900 Descending Denver Center
09:41AM 38.8658 -106.4917 224° Southwest 322 371 17,800 -1,440 Descending Denver Center
09:42AM 38.8014 -106.5717 224° Southwest 322 371 16,000 -1,800 Descending Denver Center